Time;durP1;ratioP1;P1;durP2;ratioP2;P2;SDS_P1;SDS_P2;PMS_P1;PMS_P2;Temp;Humidity;BMP_temperature;BMP_pressure;BME280_temperature;BME280_humidity;BME280_pressure;Samples;Min_cycle;Max_cycle;Signal;HPM_P1;HPM_P2
2021/10/26 00:03:14;;;;;;;0.10;0.10;;;;;;;9.57;100.00;101704.78;10326886;28;20034;-71
2021/10/26 00:08:15;;;;;;;0.10;0.10;;;;;;;9.55;100.00;101711.22;10345976;28;20445;-71
2021/10/26 00:13:15;;;;;;;0.00;0.00;;;;;;;9.51;100.00;101706.16;10361861;28;20061;-71
2021/10/26 00:18:16;;;;;;;0.00;0.00;;;;;;;9.50;100.00;101706.28;10366888;28;20036;-70
2021/10/26 00:23:16;;;;;;;0.10;0.10;;;;;;;9.47;100.00;101710.03;10367170;28;20021;-70
2021/10/26 00:28:17;;;;;;;0.10;0.10;;;;;;;9.47;100.00;101706.53;10344601;28;20296;-70
2021/10/26 00:33:17;;;;;;;0.10;0.10;;;;;;;9.47;100.00;101709.19;10343757;28;20026;-70
2021/10/26 00:38:18;;;;;;;0.10;0.10;;;;;;;9.46;100.00;101700.38;10356606;28;20274;-70
2021/10/26 00:43:18;;;;;;;0.10;0.10;;;;;;;9.47;100.00;101699.41;10359912;28;20444;-70
2021/10/26 00:48:18;;;;;;;0.10;0.10;;;;;;;9.50;100.00;101701.78;10362286;28;20041;-70
2021/10/26 00:53:19;;;;;;;0.10;0.10;;;;;;;9.52;100.00;101705.16;10361000;28;20022;-70
2021/10/26 00:58:21;;;;;;;0.10;0.10;;;;;;;9.55;100.00;101693.44;10361077;28;20277;-70
2021/10/26 01:03:21;;;;;;;0.10;0.10;;;;;;;9.57;100.00;101696.81;10369349;28;20057;-69
2021/10/26 01:08:23;;;;;;;0.10;0.10;;;;;;;9.61;100.00;101697.38;10338175;28;20054;-69
2021/10/26 01:13:24;;;;;;;0.10;0.10;;;;;;;9.62;100.00;101699.06;10333007;28;20080;-69
2021/10/26 01:18:25;;;;;;;0.10;0.10;;;;;;;9.65;100.00;101693.47;10332817;28;20444;-70
2021/10/26 01:23:26;;;;;;;0.10;0.10;;;;;;;9.65;100.00;101696.13;10331625;28;20023;-70
2021/10/26 01:28:27;;;;;;;0.10;0.10;;;;;;;9.66;100.00;101693.34;10359617;28;20125;-70
2021/10/26 01:33:28;;;;;;;0.10;0.10;;;;;;;9.70;100.00;101699.25;10339051;28;20108;-69
2021/10/26 01:38:29;;;;;;;0.10;0.10;;;;;;;9.74;100.00;101693.53;10372604;28;20083;-69
2021/10/26 01:43:29;;;;;;;0.10;0.10;;;;;;;9.78;100.00;101698.59;10369640;28;20024;-69
2021/10/26 01:48:30;;;;;;;0.00;0.00;;;;;;;9.77;100.00;101681.75;10372146;28;20045;-69
2021/10/26 01:53:30;;;;;;;0.10;0.10;;;;;;;9.68;100.00;101686.06;10355441;28;20508;-69
2021/10/26 01:58:31;;;;;;;0.05;0.05;;;;;;;9.55;100.00;101692.59;10366072;28;20381;-68
2021/10/26 02:03:31;;;;;;;0.10;0.10;;;;;;;9.43;100.00;101691.81;10343493;28;20022;-69
2021/10/26 02:08:32;;;;;;;0.10;0.10;;;;;;;9.34;100.00;101692.56;10363316;28;20076;-68
2021/10/26 02:13:32;;;;;;;0.10;0.10;;;;;;;9.21;100.00;101687.47;10366048;28;20272;-69
2021/10/26 02:18:33;;;;;;;0.10;0.10;;;;;;;9.09;100.00;101686.69;10332368;28;20458;-68
2021/10/26 02:23:33;;;;;;;0.05;0.05;;;;;;;8.96;100.00;101686.88;10329290;28;20054;-68
2021/10/26 02:28:34;;;;;;;0.10;0.10;;;;;;;8.86;100.00;101688.59;10352194;28;20461;-68
2021/10/26 02:33:34;;;;;;;0.10;0.10;;;;;;;8.79;100.00;101679.47;10370604;28;20030;-70
2021/10/26 02:38:34;;;;;;;0.10;0.10;;;;;;;8.75;100.00;101684.16;10370445;28;20272;-69
2021/10/26 02:43:35;;;;;;;0.10;0.10;;;;;;;8.79;100.00;101679.47;10369868;28;20096;-69
2021/10/26 02:48:35;;;;;;;0.00;0.00;;;;;;;8.85;100.00;101686.91;10369479;28;20419;-68
2021/10/26 02:53:36;;;;;;;0.10;0.10;;;;;;;8.90;100.00;101689.19;10338653;28;20117;-68
2021/10/26 02:58:36;;;;;;;0.00;0.00;;;;;;;8.88;100.00;101681.34;10347339;28;20018;-68
2021/10/26 03:03:37;;;;;;;0.00;0.00;;;;;;;8.78;100.00;101672.44;10369467;28;20472;-69
2021/10/26 03:08:37;;;;;;;0.08;0.08;;;;;;;8.67;100.00;101678.66;10368647;28;20385;-68
2021/10/26 03:13:38;;;;;;;0.00;0.00;;;;;;;8.55;100.00;101680.50;10355587;28;20022;-69
2021/10/26 03:18:38;;;;;;;0.10;0.10;;;;;;;8.44;100.00;101672.56;10366495;28;20018;-68
2021/10/26 03:23:38;;;;;;;0.00;0.00;;;;;;;8.31;100.00;101664.69;10364801;28;20022;-68
2021/10/26 03:28:39;;;;;;;0.10;0.10;;;;;;;8.24;100.00;101662.69;10360690;28;20469;-69
2021/10/26 03:33:40;;;;;;;0.00;0.00;;;;;;;8.19;100.00;101664.84;10358184;28;20084;-69
2021/10/26 03:38:42;;;;;;;0.00;0.00;;;;;;;8.23;100.00;101668.94;10350279;28;20393;-68
2021/10/26 03:43:42;;;;;;;0.10;0.10;;;;;;;8.24;100.00;101682.09;10361520;28;20288;-68
2021/10/26 03:48:43;;;;;;;0.00;0.00;;;;;;;8.28;100.00;101690.66;10352532;28;20473;-68
2021/10/26 03:53:44;;;;;;;0.10;0.10;;;;;;;8.37;100.00;101692.56;10367588;28;20022;-68
2021/10/26 03:58:44;;;;;;;0.00;0.00;;;;;;;8.51;100.00;101691.50;10322269;28;20492;-68
2021/10/26 04:03:44;;;;;;;0.10;0.10;;;;;;;8.61;100.00;101693.28;10330847;28;20268;-68
2021/10/26 04:13:46;;;;;;;0.10;0.10;;;;;;;8.79;100.00;101696.25;10364951;28;20105;-68
2021/10/26 04:18:48;;;;;;;0.10;0.10;;;;;;;8.83;100.00;101705.63;10354094;28;20272;-69
2021/10/26 04:23:50;;;;;;;0.00;0.00;;;;;;;8.85;100.00;101702.84;10355799;28;20029;-69
2021/10/26 04:28:50;;;;;;;0.10;0.10;;;;;;;8.87;100.00;101708.03;10344233;28;20085;-69
2021/10/26 04:33:51;;;;;;;0.00;0.00;;;;;;;8.86;100.00;101712.50;10347668;28;20087;-68
2021/10/26 04:38:51;;;;;;;0.10;0.10;;;;;;;8.89;100.00;101719.38;10360914;28;20018;-68
2021/10/26 04:43:52;;;;;;;0.00;0.00;;;;;;;8.92;100.00;101722.63;10350312;28;20026;-69
2021/10/26 04:48:52;;;;;;;0.10;0.10;;;;;;;8.95;100.00;101722.38;10333592;28;20504;-69
2021/10/26 04:53:52;;;;;;;0.00;0.00;;;;;;;8.89;100.00;101706.94;10347567;28;20021;-69
2021/10/26 04:58:53;;;;;;;0.00;0.00;;;;;;;8.83;100.00;101718.06;10362511;28;20380;-69
2021/10/26 05:03:53;;;;;;;0.10;0.10;;;;;;;8.76;100.00;101727.53;10367170;28;20770;-68
2021/10/26 05:08:53;;;;;;;0.00;0.00;;;;;;;8.81;100.00;101735.94;10373125;28;20030;-69
2021/10/26 05:13:54;;;;;;;0.10;0.10;;;;;;;8.80;100.00;101742.22;10347338;28;20031;-69
2021/10/26 05:18:59;;;;;;;0.08;0.08;;;;;;;8.79;100.00;101737.91;10349441;28;20273;-69
2021/10/26 05:23:59;;;;;;;0.10;0.10;;;;;;;8.74;100.00;101734.78;10371771;28;20076;-69
2021/10/26 05:29:00;;;;;;;0.00;0.00;;;;;;;8.73;100.00;101731.28;10370851;28;20406;-69
2021/10/26 05:34:01;;;;;;;0.10;0.10;;;;;;;8.73;100.00;101738.41;10368340;28;20269;-69
2021/10/26 05:39:06;;;;;;;0.10;0.10;;;;;;;8.71;100.00;101732.38;10366860;28;20100;-69
2021/10/26 05:44:06;;;;;;;0.00;0.00;;;;;;;8.74;100.00;101734.78;10368231;28;20389;-69
2021/10/26 05:49:07;;;;;;;0.10;0.10;;;;;;;8.78;100.00;101747.66;10371697;28;20025;-69
2021/10/26 05:54:07;;;;;;;0.10;0.10;;;;;;;8.82;100.00;101738.50;10353284;28;20031;-69
2021/10/26 05:59:07;;;;;;;0.00;0.00;;;;;;;8.89;100.00;101746.78;10331417;28;20023;-69
2021/10/26 06:04:08;;;;;;;0.00;0.00;;;;;;;8.99;100.00;101749.56;10344861;28;20053;-69
2021/10/26 06:09:08;;;;;;;0.10;0.10;;;;;;;9.06;100.00;101761.34;10370969;28;20444;-69
2021/10/26 06:14:09;;;;;;;0.10;0.10;;;;;;;9.12;100.00;101773.28;10327982;28;20053;-69
2021/10/26 06:19:10;;;;;;;0.00;0.00;;;;;;;9.18;100.00;101780.75;10360607;28;20515;-69
2021/10/26 06:24:10;;;;;;;0.00;0.00;;;;;;;9.23;100.00;101787.38;10370751;28;20779;-69
2021/10/26 06:29:10;;;;;;;0.10;0.10;;;;;;;9.28;100.00;101792.34;10364973;28;20026;-70
2021/10/26 06:34:11;;;;;;;0.10;0.10;;;;;;;9.35;100.00;101788.19;10370194;28;20276;-69
2021/10/26 06:39:11;;;;;;;0.00;0.00;;;;;;;9.41;100.00;101793.00;10369754;28;20497;-69
2021/10/26 06:44:11;;;;;;;0.10;0.10;;;;;;;9.47;100.00;101804.94;10364813;28;20030;-69
2021/10/26 06:49:12;;;;;;;0.00;0.00;;;;;;;9.52;100.00;101808.06;10366509;28;20030;-69
2021/10/26 06:54:12;;;;;;;0.10;0.10;;;;;;;9.57;100.00;101818.28;10363794;28;20081;-68
2021/10/26 06:59:12;;;;;;;0.00;0.00;;;;;;;9.57;100.00;101813.84;10342270;28;20389;-69
2021/10/26 07:04:12;;;;;;;0.00;0.00;;;;;;;9.59;100.00;101827.00;10357775;28;20045;-69
2021/10/26 07:09:13;;;;;;;0.10;0.10;;;;;;;9.64;100.00;101833.63;10349101;28;20037;-69
2021/10/26 07:14:13;;;;;;;0.10;0.10;;;;;;;9.69;100.00;101842.06;10349983;28;20030;-69
2021/10/26 07:19:13;;;;;;;0.00;0.00;;;;;;;9.74;100.00;101836.34;10356804;28;20072;-69
2021/10/26 07:24:14;;;;;;;0.10;0.10;;;;;;;9.84;100.00;101842.59;10359761;28;20542;-69
2021/10/26 07:29:14;;;;;;;0.10;0.10;;;;;;;9.93;100.00;101855.13;10354371;28;20045;-69
2021/10/26 07:34:15;;;;;;;0.10;0.10;;;;;;;10.06;100.00;101854.06;10344059;28;20505;-69
2021/10/26 07:39:31;;;;;;;0.10;0.10;;;;;;;10.13;100.00;101863.25;10337735;28;20269;-69
2021/10/26 07:44:33;;;;;;;0.10;0.10;;;;;;;10.20;100.00;101864.38;10345601;28;20026;-68
2021/10/26 07:49:33;;;;;;;0.10;0.10;;;;;;;10.34;100.00;101873.91;10328671;28;20488;-69
2021/10/26 07:54:33;;;;;;;0.10;0.10;;;;;;;10.45;100.00;101865.81;10348974;28;20051;-69
2021/10/26 07:59:34;;;;;;;0.00;0.00;;;;;;;10.56;100.00;101867.53;10366927;28;20014;-69
2021/10/26 08:04:34;;;;;;;0.10;0.10;;;;;;;10.90;100.00;101865.44;10356325;28;20279;-69
2021/10/26 08:09:34;;;;;;;0.10;0.10;;;;;;;11.38;98.15;101863.84;10364750;28;20477;-68
2021/10/26 08:14:35;;;;;;;0.10;0.10;;;;;;;11.63;96.75;101868.63;10366901;28;20026;-69
2021/10/26 08:19:38;;;;;;;0.00;0.00;;;;;;;11.68;95.30;101870.88;10341261;28;20030;-69
2021/10/26 08:24:39;;;;;;;0.00;0.00;;;;;;;11.61;95.58;101873.28;10358453;28;20049;-69
2021/10/26 08:40:17;;;;;;;0.10;0.10;;;;;;;12.91;91.08;101877.06;10353036;28;20531;-70
2021/10/26 08:45:20;;;;;;;0.10;0.10;;;;;;;12.95;90.24;101885.63;10366806;28;20048;-69
2021/10/26 08:50:21;;;;;;;0.00;0.00;;;;;;;12.51;90.90;101880.03;10365586;28;20305;-69
2021/10/26 08:55:21;;;;;;;0.10;0.10;;;;;;;12.28;91.00;101876.03;10366030;28;20117;-69
2021/10/26 09:00:23;;;;;;;0.10;0.10;;;;;;;12.17;92.14;101877.88;10345952;28;20018;-68
2021/10/26 09:05:25;;;;;;;0.00;0.00;;;;;;;12.06;92.70;101872.69;10324654;28;20034;-68
2021/10/26 09:10:27;;;;;;;0.10;0.10;;;;;;;12.09;93.65;101864.38;10344450;28;20025;-68
2021/10/26 09:20:50;;;;;;;0.10;0.10;;;;;;;12.06;92.68;101883.38;10343927;28;20038;-68
2021/10/26 09:25:55;;;;;;;0.10;0.10;;;;;;;11.96;92.83;101888.72;10313394;28;20065;-68
2021/10/26 09:31:08;;;;;;;0.10;0.10;;;;;;;11.88;93.04;101887.75;10330423;28;20121;-68
2021/10/26 09:36:28;;;;;;;0.10;0.10;;;;;;;11.84;93.87;101905.00;10349659;28;20037;-68
2021/10/26 09:41:32;;;;;;;0.10;0.10;;;;;;;11.84;93.67;101903.19;10350149;28;20112;-68
2021/10/26 09:46:33;;;;;;;0.10;0.10;;;;;;;11.81;92.89;101898.13;10369035;28;20026;-68
2021/10/26 09:51:34;;;;;;;0.10;0.10;;;;;;;11.79;93.31;101906.28;10340533;28;20037;-68
2021/10/26 09:56:34;;;;;;;0.00;0.00;;;;;;;11.88;92.55;101899.28;10329990;28;20026;-68
2021/10/26 10:01:34;;;;;;;0.10;0.10;;;;;;;12.09;92.65;101899.09;10329262;28;20014;-68
2021/10/26 10:06:50;;;;;;;0.10;0.10;;;;;;;12.23;91.64;101900.50;10364308;28;20751;-68
2021/10/26 10:11:59;;;;;;;0.10;0.10;;;;;;;12.33;91.65;101898.63;10358986;28;20290;-68
2021/10/26 10:17:02;;;;;;;0.10;0.10;;;;;;;12.44;91.04;101902.97;10353960;28;20029;-68
2021/10/26 10:22:07;;;;;;;0.10;0.10;;;;;;;12.49;90.97;101913.25;10337478;28;20058;-68
2021/10/26 10:27:09;;;;;;;0.10;0.10;;;;;;;12.59;90.79;101917.53;10339970;28;20473;-68
2021/10/26 10:32:09;;;;;;;0.10;0.10;;;;;;;12.72;89.52;101919.91;10330745;28;20061;-68
2021/10/26 10:37:10;;;;;;;0.00;0.00;;;;;;;12.97;88.61;101910.34;10359500;28;20116;-68
2021/10/26 10:42:13;;;;;;;0.10;0.10;;;;;;;13.12;87.57;101908.88;10352173;28;20022;-68
2021/10/26 10:47:41;;;;;;;0.10;0.10;;;;;;;12.93;85.83;101908.97;10361767;28;20018;-67
2021/10/26 10:52:41;;;;;;;0.10;0.10;;;;;;;12.71;85.53;101901.31;10355425;28;20288;-68
2021/10/26 10:57:41;;;;;;;0.10;0.10;;;;;;;12.83;85.09;101889.47;10368744;28;20017;-68
2021/10/26 11:02:52;;;;;;;0.10;0.10;;;;;;;12.95;84.93;101890.13;10344853;28;20025;-67
2021/10/26 11:07:54;;;;;;;0.10;0.10;;;;;;;13.22;86.39;101902.63;10353683;28;20036;-68
2021/10/26 11:13:15;;;;;;;0.10;0.10;;;;;;;13.47;84.42;101891.22;10358708;28;20033;-68
2021/10/26 11:18:34;;;;;;;0.10;0.10;;;;;;;13.42;83.38;101895.34;10345446;23;20400;-71
2021/10/26 11:23:38;;;;;;;0.10;0.10;;;;;;;13.43;84.61;101887.16;10347599;28;20033;-70
2021/10/26 11:28:45;;;;;;;0.10;0.10;;;;;;;13.40;83.71;101898.16;10315786;28;20042;-70
2021/10/26 11:33:54;;;;;;;0.10;0.10;;;;;;;13.52;83.35;101893.44;10322515;28;20049;-70
2021/10/26 11:38:56;;;;;;;0.10;0.10;;;;;;;13.47;81.92;101885.03;10319221;28;20022;-70
2021/10/26 11:44:04;;;;;;;0.10;0.10;;;;;;;13.43;81.65;101895.19;10316089;28;20019;-70
2021/10/26 11:49:08;;;;;;;0.10;0.10;;;;;;;13.38;81.51;101888.59;10316602;28;20023;-70
2021/10/26 11:54:15;;;;;;;0.10;0.10;;;;;;;13.42;82.32;101892.69;10323594;28;20022;-70
2021/10/26 11:59:17;;;;;;;0.10;0.10;;;;;;;13.47;82.97;101896.59;10326624;28;20470;-70
2021/10/26 12:04:25;;;;;;;0.10;0.10;;;;;;;13.47;82.65;101891.22;10316351;28;20050;-70
2021/10/26 12:09:28;;;;;;;0.10;0.10;;;;;;;13.35;82.73;101903.13;10326519;28;20030;-70
2021/10/26 12:14:34;;;;;;;0.10;0.10;;;;;;;13.23;83.12;101898.97;10326721;28;20473;-70
2021/10/26 12:19:37;;;;;;;0.10;0.10;;;;;;;13.20;82.86;101894.75;10320109;28;20505;-70
2021/10/26 12:24:50;;;;;;;0.10;0.10;;;;;;;13.24;83.50;101895.31;10318336;28;20086;-70
2021/10/26 12:29:50;;;;;;;0.10;0.10;;;;;;;13.27;82.97;101878.97;10299562;28;20018;-70
2021/10/26 12:34:51;;;;;;;0.10;0.10;;;;;;;13.32;83.47;101890.91;10317581;28;20405;-69
2021/10/26 12:39:52;;;;;;;0.10;0.10;;;;;;;13.32;81.78;101900.75;10310809;28;20030;-70
2021/10/26 12:44:54;;;;;;;0.10;0.10;;;;;;;13.32;83.46;101887.38;10320243;28;20022;-70
2021/10/26 12:49:54;;;;;;;0.10;0.10;;;;;;;13.30;83.13;101878.69;10325630;28;20021;-70
2021/10/26 12:54:56;;;;;;;0.10;0.10;;;;;;;13.18;83.26;101872.66;10319293;28;20027;-70
2021/10/26 13:00:23;;;;;;;0.10;0.10;;;;;;;13.14;83.41;101872.09;10334007;28;20473;-70
2021/10/26 13:05:23;;;;;;;0.10;0.10;;;;;;;13.12;83.79;101866.09;10323252;28;20027;-70
2021/10/26 13:10:25;;;;;;;0.10;0.10;;;;;;;13.13;83.97;101867.75;10325912;28;20037;-70
2021/10/26 13:15:34;;;;;;;0.10;0.10;;;;;;;13.11;83.70;101869.72;10325980;28;20039;-70
2021/10/26 13:20:47;;;;;;;0.00;0.00;;;;;;;13.13;84.16;101878.47;10327886;28;20018;-70
2021/10/26 13:25:52;;;;;;;0.10;0.10;;;;;;;13.15;83.01;101864.94;10328246;28;20366;-69
2021/10/26 13:31:08;;;;;;;0.10;0.10;;;;;;;13.12;83.50;101862.56;10316361;28;20022;-70
2021/10/26 13:36:13;;;;;;;0.10;0.10;;;;;;;13.06;83.55;101845.28;10326026;28;20019;-70
2021/10/26 13:41:14;;;;;;;0.10;0.10;;;;;;;13.02;83.89;101854.59;10323712;28;20027;-69
2021/10/26 13:46:19;;;;;;;0.05;0.05;;;;;;;12.98;84.09;101863.91;10327494;28;20034;-70
2021/10/26 13:51:20;;;;;;;0.10;0.10;;;;;;;12.89;84.01;101859.47;10325251;28;20031;-70
2021/10/26 13:56:21;;;;;;;0.10;0.10;;;;;;;12.83;83.83;101860.06;10331093;28;20034;-70
2021/10/26 14:01:21;;;;;;;0.00;0.00;;;;;;;12.76;85.07;101857.13;10326704;28;20141;-70
2021/10/26 14:06:22;;;;;;;0.00;0.00;;;;;;;12.69;84.73;101853.38;10329402;28;20072;-70
2021/10/26 14:11:24;;;;;;;0.10;0.10;;;;;;;12.64;86.21;101864.50;10325405;28;20084;-70
2021/10/26 14:16:24;;;;;;;0.00;0.00;;;;;;;12.54;86.37;101865.53;10320874;28;20034;-70
2021/10/26 14:21:26;;;;;;;0.10;0.10;;;;;;;12.46;86.99;101867.09;10326752;28;20466;-70
2021/10/26 14:26:26;;;;;;;0.00;0.00;;;;;;;12.41;86.82;101863.19;10326195;28;20210;-70
2021/10/26 14:31:28;;;;;;;0.07;0.07;;;;;;;12.36;86.79;101876.13;10308905;28;20117;-70
2021/10/26 14:57:34;;;;;;;0.10;0.10;;;;;;;12.23;88.27;101879.13;10289784;28;20490;-69
2021/10/26 15:02:34;;;;;;;0.10;0.10;;;;;;;12.13;89.81;101884.50;10290501;28;20043;-70
2021/10/26 15:07:35;;;;;;;0.10;0.10;;;;;;;11.99;90.39;101898.28;10288717;28;20114;-70
2021/10/26 15:12:41;;;;;;;0.10;0.10;;;;;;;11.86;91.38;101884.38;10288671;28;20075;-70
2021/10/26 15:17:42;;;;;;;0.10;0.10;;;;;;;11.78;92.16;101879.75;10284957;28;20289;-70
2021/10/26 15:38:14;;;;;;;0.00;0.00;;;;;;;11.60;92.85;101878.72;10290950;28;20031;-70
2021/10/26 15:43:15;;;;;;;0.10;0.10;;;;;;;11.53;92.72;101883.78;10320428;28;20389;-70
2021/10/26 15:48:16;;;;;;;0.10;0.10;;;;;;;11.48;92.11;101892.19;10327397;28;20079;-69
2021/10/26 15:53:16;;;;;;;0.00;0.00;;;;;;;11.42;92.36;101897.25;10322486;28;20022;-69
2021/10/26 15:58:17;;;;;;;0.10;0.10;;;;;;;11.38;91.87;101909.19;10327848;28;20022;-70
2021/10/26 16:03:17;;;;;;;0.10;0.10;;;;;;;11.37;92.08;101915.50;10326527;28;20022;-70
2021/10/26 16:08:20;;;;;;;0.10;0.10;;;;;;;11.35;92.36;101925.47;10328428;28;20265;-70
2021/10/26 16:13:25;;;;;;;0.10;0.10;;;;;;;11.33;91.36;101922.94;10303377;28;20489;-70
2021/10/26 16:18:29;;;;;;;0.10;0.10;;;;;;;11.33;91.61;101928.28;10287755;28;20482;-69
2021/10/26 16:23:30;;;;;;;;;;;;;;;11.30;91.46;101924.06;10283154;28;20471;-69
2021/10/26 16:28:31;;;;;;;0.10;0.10;;;;;;;11.25;91.86;101923.63;10287314;28;19918;-69
2021/10/26 16:33:33;;;;;;;0.10;0.10;;;;;;;11.23;92.00;101936.25;10336066;28;20093;-69
2021/10/26 16:38:34;;;;;;;0.00;0.00;;;;;;;11.21;92.14;101940.03;10300034;28;20351;-69
2021/10/26 16:43:39;;;;;;;0.00;0.00;;;;;;;11.19;92.19;101926.00;10311849;28;20030;-70
2021/10/26 16:48:40;;;;;;;0.00;0.00;;;;;;;11.19;92.17;101915.31;10334199;28;20026;-69
2021/10/26 16:53:42;;;;;;;0.10;0.10;;;;;;;11.18;91.91;101916.31;10288269;28;20029;-69
2021/10/26 16:58:42;;;;;;;0.10;0.10;;;;;;;11.21;91.62;101919.53;10320635;28;20377;-69
2021/10/26 17:03:45;;;;;;;0.10;0.10;;;;;;;11.29;91.43;101930.38;10327987;28;20018;-69
2021/10/26 17:08:46;;;;;;;0.00;0.00;;;;;;;11.33;91.64;101949.59;10322792;28;20317;-69
2021/10/26 17:13:47;;;;;;;0.10;0.10;;;;;;;11.28;93.00;101952.69;10325350;28;20049;-70
2021/10/26 17:18:47;;;;;;;0.10;0.10;;;;;;;11.18;94.43;101959.81;10353657;23;20050;-66
2021/10/26 17:23:48;;;;;;;0.10;0.10;;;;;;;11.05;95.71;101957.41;10351887;28;20023;-66
2021/10/26 17:28:48;;;;;;;0.10;0.10;;;;;;;10.94;96.67;101956.63;10305840;28;20470;-66
2021/10/26 17:33:48;;;;;;;0.10;0.10;;;;;;;10.86;96.87;101952.81;10298335;28;20053;-66
2021/10/26 17:38:49;;;;;;;0.10;0.10;;;;;;;10.82;97.43;101953.22;10293815;28;20489;-66
2021/10/26 17:43:49;;;;;;;0.10;0.10;;;;;;;10.78;97.88;101939.31;10303941;28;20379;-68
2021/10/26 17:48:50;;;;;;;0.10;0.10;;;;;;;10.76;97.99;101945.75;10295591;28;20230;-66
2021/10/26 17:53:51;;;;;;;0.10;0.10;;;;;;;10.75;98.33;101944.06;10302340;28;20019;-66
2021/10/26 17:58:52;;;;;;;0.10;0.10;;;;;;;10.76;98.58;101951.06;10300747;28;20023;-66
2021/10/26 18:03:53;;;;;;;0.10;0.10;;;;;;;10.79;98.85;101956.13;10293567;28;20389;-66
2021/10/26 18:09:04;;;;;;;0.10;0.10;;;;;;;10.79;99.64;101966.78;10301839;28;20273;-66
2021/10/26 18:14:04;;;;;;;0.10;0.10;;;;;;;10.76;100.00;101953.75;10307193;28;20029;-66
2021/10/26 18:19:05;;;;;;;0.00;0.00;;;;;;;10.72;100.00;101963.84;10307763;28;20023;-66
2021/10/26 18:24:05;;;;;;;0.10;0.10;;;;;;;10.71;100.00;101951.50;10319108;28;20026;-66
2021/10/26 18:29:06;;;;;;;0.10;0.10;;;;;;;10.70;100.00;101944.44;10321141;28;20053;-67
2021/10/26 18:34:07;;;;;;;0.00;0.00;;;;;;;10.71;100.00;101946.16;10324475;28;20285;-66
2021/10/26 18:39:10;;;;;;;0.10;0.10;;;;;;;10.71;100.00;101945.31;10312835;28;20070;-66
2021/10/26 18:44:32;;;;;;;0.10;0.10;;;;;;;10.71;100.00;101938.16;10317625;28;20029;-66
2021/10/26 18:49:32;;;;;;;0.10;0.10;;;;;;;10.72;100.00;101945.19;10313772;28;20109;-66
2021/10/26 18:54:32;;;;;;;0.10;0.10;;;;;;;10.75;100.00;101944.06;10312277;28;20022;-66
2021/10/26 18:59:34;;;;;;;0.10;0.10;;;;;;;10.76;100.00;101927.97;10309577;28;20026;-66
2021/10/26 19:04:35;;;;;;;0.10;0.10;;;;;;;10.78;100.00;101933.97;10302592;28;20492;-68
2021/10/26 19:09:35;;;;;;;0.00;0.00;;;;;;;10.80;100.00;101936.53;10306929;28;20031;-67
2021/10/26 19:14:35;;;;;;;0.10;0.10;;;;;;;10.80;100.00;101932.03;10305646;28;20143;-67
2021/10/26 19:19:35;;;;;;;0.10;0.10;;;;;;;10.76;100.00;101930.63;10303832;28;20027;-67
2021/10/26 19:24:36;;;;;;;0.10;0.10;;;;;;;10.80;100.00;101926.69;10322633;28;20023;-68
2021/10/26 19:29:36;;;;;;;0.10;0.10;;;;;;;10.82;100.00;101932.75;10314102;28;20060;-67
2021/10/26 19:34:38;;;;;;;0.10;0.10;;;;;;;10.83;100.00;101929.09;10316507;28;20044;-67
2021/10/26 19:39:39;;;;;;;0.10;0.10;;;;;;;10.84;100.00;101928.09;10310870;28;20368;-67
2021/10/26 19:44:39;;;;;;;0.10;0.10;;;;;;;10.87;100.00;101929.66;10290992;28;20030;-67
2021/10/26 19:49:40;;;;;;;0.10;0.10;;;;;;;10.90;100.00;101921.41;10299600;28;20113;-67
2021/10/26 19:54:41;;;;;;;0.10;0.10;;;;;;;10.91;100.00;101916.91;10298788;28;20031;-67
2021/10/26 19:59:42;;;;;;;0.00;0.00;;;;;;;10.91;100.00;101932.91;10310172;28;20068;-67
2021/10/26 20:04:44;;;;;;;0.10;0.10;;;;;;;10.88;100.00;101918.88;10298625;28;20093;-67
2021/10/26 20:09:44;;;;;;;0.00;0.00;;;;;;;10.90;100.00;101937.41;10303688;28;20023;-67
2021/10/26 20:14:46;;;;;;;0.03;0.03;;;;;;;10.86;100.00;101928.81;10296906;28;20014;-67
2021/10/26 20:20:08;;;;;;;0.10;0.10;;;;;;;10.90;100.00;101933.88;10287316;28;20019;-68
2021/10/26 20:25:10;;;;;;;0.10;0.10;;;;;;;10.90;100.00;101945.38;10302889;28;20045;-68
2021/10/26 20:30:12;;;;;;;0.00;0.00;;;;;;;10.94;100.00;101954.81;10293756;28;20513;-68
2021/10/26 20:35:13;;;;;;;0.10;0.10;;;;;;;10.96;100.00;101958.19;10292804;28;20187;-67
2021/10/26 20:40:14;;;;;;;0.10;0.10;;;;;;;11.01;100.00;101957.78;10301248;28;20362;-67
2021/10/26 20:45:15;;;;;;;0.10;0.10;;;;;;;11.03;100.00;101954.03;10284671;28;20274;-68
2021/10/26 20:50:17;;;;;;;0.10;0.10;;;;;;;11.00;100.00;101948.97;10287784;28;20023;-68
2021/10/26 20:55:17;;;;;;;0.10;0.10;;;;;;;10.95;100.00;101945.84;10324628;28;20046;-68
2021/10/26 21:00:19;;;;;;;0.00;0.00;;;;;;;10.88;100.00;101944.69;10325790;28;20050;-68
2021/10/26 21:05:19;;;;;;;0.10;0.10;;;;;;;10.85;100.00;101951.16;10325699;28;20027;-68
2021/10/26 21:10:20;;;;;;;0.10;0.10;;;;;;;10.83;100.00;101953.09;10309101;28;20026;-68
2021/10/26 21:15:20;;;;;;;0.00;0.00;;;;;;;10.84;100.00;101956.59;10289234;28;20050;-68
2021/10/26 21:20:20;;;;;;;0.10;0.10;;;;;;;10.83;100.00;101955.75;10296666;28;20030;-68
2021/10/26 21:25:21;;;;;;;0.03;0.03;;;;;;;10.82;100.00;101954.06;10367227;28;20030;-69
2021/10/26 21:30:24;;;;;;;0.10;0.10;;;;;;;10.81;100.00;101963.03;10371819;28;20056;-69
2021/10/26 21:35:26;;;;;;;0.10;0.10;;;;;;;10.80;100.00;101956.03;10367689;28;20045;-69
2021/10/26 21:40:27;;;;;;;0.10;0.10;;;;;;;10.77;100.00;101955.44;10372990;28;20281;-69
2021/10/26 21:45:27;;;;;;;0.10;0.10;;;;;;;10.77;100.00;101945.63;10373779;28;20030;-70
2021/10/26 21:50:27;;;;;;;0.10;0.10;;;;;;;10.74;100.00;101948.56;10373586;28;20026;-69
2021/10/26 21:55:28;;;;;;;0.10;0.10;;;;;;;10.76;100.00;101945.75;10299132;28;20034;-69
2021/10/26 22:00:28;;;;;;;0.10;0.10;;;;;;;10.76;100.00;101943.94;10308833;28;20045;-69
2021/10/26 22:05:29;;;;;;;0.10;0.10;;;;;;;10.78;100.00;101943.81;10297473;28;20033;-69
2021/10/26 22:10:30;;;;;;;0.10;0.10;;;;;;;10.79;100.00;101941.03;10320866;28;20340;-69
2021/10/26 22:15:30;;;;;;;0.10;0.10;;;;;;;10.80;100.00;101931.19;10323063;28;20034;-69
2021/10/26 22:20:31;;;;;;;0.10;0.10;;;;;;;10.81;100.00;101924.88;10319170;28;20030;-69
2021/10/26 22:25:32;;;;;;;0.10;0.10;;;;;;;10.83;100.00;101921.09;10294900;28;20023;-69
2021/10/26 22:30:32;;;;;;;0.10;0.10;;;;;;;10.86;100.00;101917.34;10307569;28;20038;-69
2021/10/26 22:35:33;;;;;;;0.10;0.10;;;;;;;10.86;100.00;101912.00;10294856;28;20039;-69
2021/10/26 22:40:33;;;;;;;0.10;0.10;;;;;;;10.84;100.00;101913.94;10291341;28;20740;-70
2021/10/26 22:45:33;;;;;;;0.00;0.00;;;;;;;10.81;100.00;101912.38;10301368;28;20045;-70
2021/10/26 22:50:35;;;;;;;0.00;0.00;;;;;;;10.79;100.00;101903.72;10302853;28;20289;-70
2021/10/26 22:55:35;;;;;;;0.10;0.10;;;;;;;10.79;100.00;101909.03;10327227;28;20034;-70
2021/10/26 23:00:35;;;;;;;0.10;0.10;;;;;;;10.81;100.00;101917.72;10328153;28;20022;-70
2021/10/26 23:05:36;;;;;;;0.10;0.10;;;;;;;10.82;100.00;101922.09;10298023;28;20532;-70
2021/10/26 23:10:36;;;;;;;0.10;0.10;;;;;;;10.83;100.00;101925.59;10296104;28;20027;-70
2021/10/26 23:20:46;;;;;;;0.10;0.10;;;;;;;10.85;100.00;101921.81;10261370;28;20050;-73
2021/10/26 23:25:47;;;;;;;0.10;0.10;;;;;;;10.88;100.00;101939.38;10282425;28;20082;-74
2021/10/26 23:30:47;;;;;;;0.10;0.10;;;;;;;10.93;100.00;101921.13;10275302;28;20071;-73
2021/10/26 23:35:47;;;;;;;0.10;0.10;;;;;;;11.00;100.00;101924.13;10277959;28;20019;-72
2021/10/26 23:40:48;;;;;;;0.10;0.10;;;;;;;11.05;100.00;101927.19;10281036;28;20524;-73
2021/10/26 23:45:48;;;;;;;0.10;0.10;;;;;;;11.13;100.00;101929.19;10287406;28;20023;-73
2021/10/26 23:50:49;;;;;;;0.10;0.10;;;;;;;11.20;100.00;101928.53;10287310;28;20026;-73
2021/10/26 23:55:49;;;;;;;0.10;0.10;;;;;;;11.24;100.00;101940.59;10286770;28;20018;-74
